地図

経路データ

SID SEASON NUMBER BASIN SUBBASIN NAME ISO_TIME NATURE LAT LON WMO_WIND WMO_PRES WMO_AGENCY TRACK_TYPE DIST2LAND LANDFALL IFLAG USA_AGENCY USA_ATCF_ID USA_LAT USA_LON USA_RECORD USA_STATUS USA_WIND USA_PRES USA_SSHS USA_R34_NE USA_R34_SE USA_R34_SW USA_R34_NW USA_R50_NE USA_R50_SE USA_R50_SW USA_R50_NW USA_R64_NE USA_R64_SE USA_R64_SW USA_R64_NW USA_POCI USA_ROCI USA_RMW USA_EYE TOKYO_LAT TOKYO_LON TOKYO_GRADE TOKYO_WIND TOKYO_PRES TOKYO_R50_DIR TOKYO_R50_LONG TOKYO_R50_SHORT TOKYO_R30_DIR TOKYO_R30_LONG TOKYO_R30_SHORT TOKYO_LAND CMA_LAT CMA_LON CMA_CAT CMA_WIND CMA_PRES HKO_LAT HKO_LON HKO_CAT HKO_WIND HKO_PRES NEWDELHI_LAT NEWDELHI_LON NEWDELHI_GRADE NEWDELHI_WIND NEWDELHI_PRES NEWDELHI_CI NEWDELHI_DP NEWDELHI_POCI REUNION_LAT REUNION_LON REUNION_TYPE REUNION_WIND REUNION_PRES REUNION_TNUM REUNION_CI REUNION_RMW REUNION_R34_NE REUNION_R34_SE REUNION_R34_SW REUNION_R34_NW REUNION_R50_NE REUNION_R50_SE REUNION_R50_SW REUNION_R50_NW REUNION_R64_NE REUNION_R64_SE REUNION_R64_SW REUNION_R64_NW BOM_LAT BOM_LON BOM_TYPE BOM_WIND BOM_PRES BOM_TNUM BOM_CI BOM_RMW BOM_R34_NE BOM_R34_SE BOM_R34_SW BOM_R34_NW BOM_R50_NE BOM_R50_SE BOM_R50_SW BOM_R50_NW BOM_R64_NE BOM_R64_SE BOM_R64_SW BOM_R64_NW BOM_ROCI BOM_POCI BOM_EYE BOM_POS_METHOD BOM_PRES_METHOD NADI_LAT NADI_LON NADI_CAT NADI_WIND NADI_PRES WELLINGTON_LAT WELLINGTON_LON WELLINGTON_WIND WELLINGTON_PRES DS824_LAT DS824_LON DS824_STAGE DS824_WIND DS824_PRES TD9636_LAT TD9636_LON TD9636_STAGE TD9636_WIND TD9636_PRES TD9635_LAT TD9635_LON TD9635_WIND TD9635_PRES TD9635_ROCI NEUMANN_LAT NEUMANN_LON NEUMANN_CLASS NEUMANN_WIND NEUMANN_PRES MLC_LAT MLC_LON MLC_CLASS MLC_WIND MLC_PRES USA_GUST BOM_GUST BOM_GUST_PER REUNION_GUST REUNION_GUST_PER USA_SEAHGT USA_SEARAD_NE USA_SEARAD_SE USA_SEARAD_SW USA_SEARAD_NW STORM_SPEED STORM_DIR
1925071N06079 1925 15 NI BB NOT_NAMED 1925-03-12 00:00:00 TS 6.10000 78.5000 main 173 168 _________O____ -1 6.10000 78.5000 TC 30 2 0
1925071N06079 1925 15 NI BB NOT_NAMED 1925-03-12 03:00:00 TS 6.19167 78.5000 main 168 164 _________PO___ -1 6.23750 78.5000 TC 30 6.10000 78.5000 1 3 0
1925071N06079 1925 15 NI BB NOT_NAMED 1925-03-12 06:00:00 TS 6.35438 78.5000 main 161 158 _________OP___ -1 6.40000 78.5000 TC 30 6.28594 78.5000 1 4 359
1925071N06079 1925 15 NI BB NOT_NAMED 1925-03-12 09:00:00 TS 6.54322 78.5000 main 158 155 _________PP___ -1 6.60000 78.5000 TC 30 6.46751 78.5000 1 4 0
1925071N06079 1925 15 NI BB NOT_NAMED 1925-03-12 12:00:00 TS 6.72016 78.5000 main 155 154 _________OP___ -1 6.80000 78.5000 TC 30 6.64032 78.5000 1 3 358
1925071N06079 1925 15 NI BB NOT_NAMED 1925-03-12 15:00:00 TS 6.87875 78.4963 main 154 154 _________PO___ -1 6.95750 78.4925 TC 30 6.80000 78.5000 1 3 0
1925071N06079 1925 15 NI BB NOT_NAMED 1925-03-12 18:00:00 TS 7.02249 78.5008 main 154 139 _________OP___ -1 7.10000 78.5000 TC 30 6.94499 78.5016 1 3 6
1925071N06079 1925 15 NI BB NOT_NAMED 1925-03-12 21:00:00 TS 7.15999 78.5238 main 139 130 _________PP___ -1 7.23500 78.5350 TC 30 7.08498 78.5126 1 3 13
1925071N06079 1925 15 NI BB NOT_NAMED 1925-03-13 00:00:00 TS 7.31624 78.5711 main 135 114 _________OP___ -1 7.40000 78.6000 TC 30 7.23248 78.5423 1 4 18
1925071N06079 1925 15 NI BB NOT_NAMED 1925-03-13 03:00:00 TS 7.52125 78.6425 main 114 102 _________PO___ -1 7.64250 78.6850 TC 30 7.40000 78.6000 1 5 22
1925071N06079 1925 15 NI BB NOT_NAMED 1925-03-13 06:00:00 TS 7.75172 78.7461 main 94 88 _________OP___ -1 7.90000 78.8000 TC 30 7.60345 78.6922 1 5 28
1925071N06079 1925 15 NI BB NOT_NAMED 1925-03-13 09:00:00 TS 7.96376 78.8775 main 88 77 _________PP___ -1 8.10000 78.9425 TC 30 7.82751 78.8125 1 5 33
1925071N06079 1925 15 NI BB NOT_NAMED 1925-03-13 12:00:00 TS 8.18141 79.0258 main 77 59 _________OP___ -1 8.30000 79.1000 TC 30 8.06282 78.9516 1 6 32
1925071N06079 1925 15 NI BB NOT_NAMED 1925-03-13 15:00:00 TS 8.42500 79.1750 main 59 59 _________PO___ -1 8.55000 79.2500 TC 31 8.30000 79.1000 1 6 31
1925071N06079 1925 15 NI BB NOT_NAMED 1925-03-13 18:00:00 TS 8.66858 79.3174 main 69 43 _________OP___ -1 8.80000 79.4000 TC 32 8.53716 79.2347 1 6 31
1925071N06079 1925 15 NI BB NOT_NAMED 1925-03-13 21:00:00 TS 8.89371 79.4600 main 43 34 _________PP___ -1 9.01498 79.5425 TC 33 8.77245 79.3775 1 5 35
1925071N06079 1925 15 NI BB NOT_NAMED 1925-03-14 00:00:00 TS 9.09826 79.6158 main 39 31 _________OP___ -1 9.20000 79.7000 TC 34 8.99652 79.5316 1 5 41
1925071N06079 1925 15 NI BB NOT_NAMED 1925-03-14 03:00:00 TS 9.27875 79.7963 main 32 10 _________PO___ -1 9.35750 79.8925 TC 36 9.20000 79.7000 2 5 48
1925071N06079 1925 15 NI BB NOT_NAMED 1925-03-14 06:00:00 TS 9.43580 79.9989 main 10 0 _________OP___ -1 9.50000 80.1000 TC 39 9.37160 79.8978 2 5 53
1925071N06079 1925 15 NI BB NOT_NAMED 1925-03-14 09:00:00 TS 9.58628 80.2075 main 10 0 _________PP___ -1 9.65000 80.3075 TC 42 9.52256 80.1075 2 5 54
1925071N06079 1925 15 NI BB NOT_NAMED 1925-03-14 12:00:00 TS 9.73112 80.4067 main 10 10 _________OP___ -1 9.80000 80.5000 TC 45 9.66223 80.3135 2 5 52
1925071N06079 1925 15 NI BB NOT_NAMED 1925-03-14 15:00:00 TS 9.87500 80.5825 main 39 39 _________PO___ -1 9.94999 80.6650 TC 45 9.80000 80.5000 3 4 47
1925071N06079 1925 15 NI BB NOT_NAMED 1925-03-14 18:00:00 TS 10.0230 80.7314 main 55 55 _________OP___ -1 10.1000 80.8000 TC 45 9.94590 80.6628 3 4 42
1925071N06079 1925 15 NI BB NOT_NAMED 1925-03-14 21:00:00 TS 10.1712 80.8588 main 86 86 _________PP___ -1 10.2500 80.9150 TC 45 10.0925 80.8025 3 4 37
1925071N06079 1925 15 NI BB NOT_NAMED 1925-03-15 00:00:00 TS 10.3214 80.9580 main 101 101 _________OP___ -1 10.4000 81.0000 TC 45 10.2428 80.9159 3 3 30
1925071N06079 1925 15 NI BB NOT_NAMED 1925-03-15 03:00:00 TS 10.4712 81.0325 main 117 117 _________PO___ -1 10.5425 81.0650 TC 45 10.4000 81.0000 3 3 22
1925071N06079 1925 15 NI BB NOT_NAMED 1925-03-15 06:00:00 TS 10.6400 81.0870 main 131 131 _________OP___ -1 10.7000 81.1000 TC 45 10.5800 81.0741 3 4 14
1925071N06079 1925 15 NI BB NOT_NAMED 1925-03-15 09:00:00 TS 10.8362 81.1200 main 131 131 _________PP___ -1 10.9075 81.1225 TC 45 10.7649 81.1175 3 4 2
1925071N06079 1925 15 NI BB NOT_NAMED 1925-03-15 12:00:00 TS 11.0212 81.1136 main 131 130 _________OP___ -1 11.1000 81.1000 TC 45 10.9425 81.1272 3 3 350
1925071N06079 1925 15 NI BB NOT_NAMED 1925-03-15 15:00:00 TS 11.1575 81.0575 main 130 120 _________PO___ -1 11.2150 81.0150 TC 45 11.1000 81.1000 3 3 331
1925071N06079 1925 15 NI BB NOT_NAMED 1925-03-15 18:00:00 TS 11.2591 80.9772 main 120 109 _________OP___ -1 11.3000 80.9000 TC 45 11.2285 81.0350 3 3 319
1925071N06079 1925 15 NI BB NOT_NAMED 1925-03-15 21:00:00 TS 11.3575 80.8820 main 111 100 _________PP___ -1 11.3950 80.7950 TC 45 11.3326 80.9401 3 3 314
1925071N06079 1925 15 NI BB NOT_NAMED 1925-03-16 00:00:00 TS 11.4469 80.7834 main 100 93 _________OP___ -1 11.5000 80.7000 TC 45 11.4204 80.8251 3 2 309
1925071N06079 1925 15 NI BB NOT_NAMED 1925-03-16 03:00:00 NR 11.5000 80.7000 main 93 __________O___ -1 TC 11.5000 80.7000 3 2 303

IBTrACS Databaseについて

本データベースは、米国NOAAが公開する1842年以降の世界の熱帯低気圧のベストトラックデータアーカイブInternational Best Track Archive for Climate Stewardship (IBTrACS)を、ウェブで閲覧しやすい形式に変換したものです。

最終更新日:2021-12-06